createdAt,value
2022-11-23T00:04:14.166Z,30.63
2022-11-23T00:09:17.317Z,29.63
2022-11-23T00:14:20.437Z,29.70
2022-11-23T00:19:23.588Z,30.23
2022-11-23T00:24:27.104Z,29.43
2022-11-23T00:29:30.517Z,32.50
2022-11-23T00:34:34.309Z,26.90
2022-11-23T00:39:37.448Z,30.33
2022-11-23T00:44:40.590Z,28.10
2022-11-23T00:49:43.760Z,28.67
2022-11-23T00:54:47.054Z,28.33
2022-11-23T00:59:50.448Z,29.33
2022-11-23T01:04:53.622Z,30.70
2022-11-23T01:09:58.039Z,26.87
2022-11-23T01:15:01.147Z,29.13
2022-11-23T01:20:04.887Z,30.53
2022-11-23T01:25:09.052Z,27.67
2022-11-23T01:30:12.820Z,25.37
2022-11-23T01:35:16.458Z,27.80
2022-11-23T01:40:19.729Z,26.07
2022-11-23T01:45:33.658Z,25.67
2022-11-23T01:50:37.435Z,24.33
2022-11-23T01:55:43.447Z,27.37
2022-11-23T02:00:47.597Z,25.03
2022-11-23T02:06:00.429Z,24.13
2022-11-23T02:11:04.260Z,24.73
2022-11-23T02:16:07.629Z,24.83
2022-11-23T02:21:11.219Z,27.90
2022-11-23T02:26:36.671Z,27.93
2022-11-23T02:31:39.869Z,26.87
2022-11-23T02:36:44.491Z,25.57
2022-11-23T02:41:57.673Z,24.93
2022-11-23T02:47:01.229Z,24.90
2022-11-23T02:52:05.098Z,23.87
2022-11-23T02:57:08.869Z,28.20
2022-11-23T03:02:12.087Z,26.20
2022-11-23T03:07:15.384Z,23.53
2022-11-23T03:12:18.609Z,23.43
2022-11-23T03:17:21.980Z,23.60
2022-11-23T03:22:25.590Z,23.53
2022-11-23T03:27:29.739Z,23.30
2022-11-23T03:32:33.017Z,23.83
2022-11-23T03:37:36.270Z,24.27
2022-11-23T03:42:41.447Z,20.53
2022-11-23T03:47:45.051Z,23.63
2022-11-23T03:52:51.367Z,25.73
2022-11-23T03:57:55.552Z,23.93
2022-11-23T04:02:59.204Z,24.67
2022-11-23T04:08:02.430Z,25.07
2022-11-23T04:13:05.875Z,28.80
2022-11-23T04:18:09.026Z,25.10
2022-11-23T04:23:13.644Z,23.60
2022-11-23T04:28:16.920Z,23.90
2022-11-23T04:33:20.041Z,22.97
2022-11-23T04:38:23.111Z,22.67
2022-11-23T04:43:26.288Z,23.53
2022-11-23T04:48:29.551Z,23.90
2022-11-23T04:53:32.689Z,23.30
2022-11-23T04:58:36.958Z,23.47
2022-11-23T05:03:40.097Z,20.77
2022-11-23T05:08:43.572Z,21.83
2022-11-23T05:13:46.886Z,22.63
2022-11-23T05:18:50.074Z,22.67
2022-11-23T05:23:53.204Z,22.17
2022-11-23T05:28:56.372Z,20.17
2022-11-23T05:33:59.581Z,21.10
2022-11-23T05:39:02.703Z,21.50
2022-11-23T05:44:06.204Z,22.33
2022-11-23T05:49:10.573Z,22.40
2022-11-23T05:54:14.204Z,24.77
2022-11-23T05:59:17.536Z,25.30
2022-11-23T06:04:20.932Z,23.50
2022-11-23T06:09:24.415Z,23.93
2022-11-23T06:14:27.763Z,21.20
2022-11-23T06:19:31.311Z,21.17
2022-11-23T06:24:35.523Z,22.63
2022-11-23T06:29:39.026Z,20.57
2022-11-23T06:34:42.155Z,22.17
2022-11-23T06:39:46.022Z,21.87
2022-11-23T06:44:49.402Z,22.40
2022-11-23T06:49:52.976Z,24.13
2022-11-23T06:54:56.269Z,19.60
2022-11-23T06:59:59.663Z,21.20
2022-11-23T07:05:02.939Z,23.60
2022-11-23T07:10:07.445Z,23.83
2022-11-23T07:15:12.243Z,23.83
2022-11-23T07:20:16.692Z,22.03
2022-11-23T07:25:19.985Z,22.13
2022-11-23T07:30:27.960Z,21.43
2022-11-23T07:35:36.351Z,25.67
2022-11-23T07:40:40.213Z,22.83
2022-11-23T07:45:48.797Z,23.00
2022-11-23T07:50:55.840Z,24.00
2022-11-23T07:56:09.597Z,22.97
2022-11-23T08:01:28.936Z,26.63
2022-11-23T08:08:46.658Z,23.33
2022-11-23T08:13:05.725Z,20.13
2022-11-23T08:18:10.303Z,20.00
2022-11-23T08:23:13.614Z,22.00
2022-11-23T08:28:17.550Z,23.43
2022-11-23T08:33:20.640Z,21.93
2022-11-23T08:38:23.888Z,19.30
2022-11-23T08:43:27.913Z,21.70
2022-11-23T08:48:31.224Z,23.67
2022-11-23T08:53:34.993Z,22.80
2022-11-23T08:58:38.360Z,22.07
2022-11-23T09:03:42.333Z,22.53
2022-11-23T09:08:45.576Z,21.37
2022-11-23T09:13:49.402Z,23.30
2022-11-23T09:18:56.764Z,22.53
2022-11-23T09:24:00.388Z,23.30
2022-11-23T09:29:05.437Z,20.30
2022-11-23T09:34:10.823Z,22.77
2022-11-23T09:39:13.963Z,23.13
2022-11-23T09:44:17.170Z,22.70
2022-11-23T09:49:30.772Z,25.23
2022-11-23T09:54:40.635Z,25.40
2022-11-23T09:59:51.604Z,23.70
2022-11-23T10:04:56.423Z,22.43
2022-11-23T10:10:19.886Z,21.57
2022-11-23T10:15:29.684Z,20.03
2022-11-23T10:21:02.155Z,25.17
2022-11-23T10:26:07.699Z,22.53
2022-11-23T10:31:17.093Z,21.03
2022-11-23T10:36:20.724Z,21.50
2022-11-23T10:41:24.175Z,22.40
2022-11-23T10:46:37.634Z,22.73
2022-11-23T10:51:41.465Z,23.53
2022-11-23T10:56:50.125Z,22.87
2022-11-23T11:02:02.129Z,23.27
2022-11-23T11:07:26.758Z,19.07
2022-11-23T11:12:33.220Z,22.27
2022-11-23T11:17:38.294Z,20.63
2022-11-23T11:22:47.428Z,19.67
2022-11-23T11:27:54.422Z,20.80
2022-11-23T11:33:18.349Z,20.47
2022-11-23T11:38:32.318Z,18.87
2022-11-23T11:43:45.466Z,19.23
2022-11-23T11:49:15.233Z,21.80
2022-11-23T11:54:41.594Z,19.70
2022-11-23T11:59:50.447Z,22.30
2022-11-23T12:05:11.342Z,24.63
2022-11-23T12:10:38.953Z,22.63
2022-11-23T12:15:49.843Z,19.27
2022-11-23T12:21:18.611Z,20.07
2022-11-23T12:26:31.082Z,18.80
2022-11-23T12:31:40.114Z,18.70
2022-11-23T12:36:43.440Z,16.10
2022-11-23T12:41:55.374Z,19.17
2022-11-23T12:47:24.115Z,19.10
2022-11-23T12:52:56.048Z,26.30
2022-11-23T12:58:06.934Z,23.13
2022-11-23T13:03:47.735Z,22.60
2022-11-23T13:09:02.704Z,19.37
2022-11-23T13:14:16.766Z,18.47
2022-11-23T13:19:43.662Z,19.30
2022-11-23T13:25:14.568Z,19.57
2022-11-23T13:30:51.866Z,20.53
2022-11-23T13:36:07.032Z,21.10
2022-11-23T13:41:37.990Z,20.13
2022-11-23T13:46:42.468Z,18.73
2022-11-23T13:52:23.255Z,20.47
2022-11-23T13:57:26.940Z,19.33
2022-11-23T14:02:31.316Z,19.80
2022-11-23T14:07:46.374Z,15.43
2022-11-23T14:13:17.029Z,19.33
2022-11-23T14:18:47.783Z,22.03
2022-11-23T14:24:15.676Z,22.17
2022-11-23T14:29:27.664Z,18.80
2022-11-23T14:34:56.715Z,18.57
2022-11-23T14:40:45.636Z,19.40
2022-11-23T14:45:49.226Z,21.20
2022-11-23T14:51:14.648Z,25.87
2022-11-23T14:56:30.404Z,25.67
2022-11-23T15:01:35.117Z,25.77
2022-11-23T15:06:45.973Z,26.57
2022-11-23T15:12:12.490Z,25.97
2022-11-23T15:17:35.310Z,24.10
2022-11-23T15:23:10.984Z,25.23
2022-11-23T15:28:18.461Z,25.90
2022-11-23T15:33:23.969Z,25.93
2022-11-23T15:38:27.899Z,26.37
2022-11-23T15:43:31.372Z,25.83
2022-11-23T15:48:36.034Z,25.00
2022-11-23T15:53:49.974Z,25.50
2022-11-23T15:58:54.590Z,23.00
2022-11-23T16:04:05.296Z,26.23
2022-11-23T16:09:54.229Z,26.43
2022-11-23T16:15:18.997Z,25.27
2022-11-23T16:20:25.127Z,23.03
2022-11-23T16:25:36.115Z,24.17
2022-11-23T16:30:42.315Z,23.63
2022-11-23T16:35:48.335Z,23.77
2022-11-23T16:40:53.056Z,27.80
2022-11-23T16:45:56.531Z,27.40
2022-11-23T16:51:00.600Z,24.70
2022-11-23T16:56:05.115Z,32.00
2022-11-23T17:01:20.613Z,27.73
2022-11-23T17:06:24.864Z,27.67
2022-11-23T17:11:31.314Z,28.47
2022-11-23T17:16:35.728Z,25.83
2022-11-23T17:21:39.394Z,30.37
2022-11-23T17:26:46.074Z,27.80
2022-11-23T17:31:51.381Z,28.00
2022-11-23T17:36:54.904Z,30.43
2022-11-23T17:42:04.617Z,26.27
2022-11-23T17:47:27.196Z,28.37
2022-11-23T17:52:31.471Z,25.97
2022-11-23T17:57:35.363Z,25.83
2022-11-23T18:02:40.085Z,26.63
2022-11-23T18:07:46.194Z,23.17
2022-11-23T18:12:53.133Z,30.60
2022-11-23T18:18:00.245Z,30.37
2022-11-23T18:23:09.704Z,30.90
2022-11-23T18:28:19.383Z,31.40
2022-11-23T18:33:25.478Z,31.57
2022-11-23T18:38:33.584Z,33.13
2022-11-23T18:43:41.214Z,29.37
2022-11-23T18:48:48.452Z,33.03
2022-11-23T18:53:57.000Z,25.37
2022-11-23T18:59:01.953Z,27.40
2022-11-23T19:04:07.410Z,25.30
2022-11-23T19:09:14.701Z,29.77
2022-11-23T19:14:20.561Z,24.87
2022-11-23T19:19:25.744Z,30.37
2022-11-23T19:24:31.448Z,25.30
2022-11-23T19:29:35.959Z,29.03
2022-11-23T19:34:41.715Z,23.03
2022-11-23T19:39:48.616Z,28.93
2022-11-23T19:44:53.802Z,25.53
2022-11-23T19:49:59.197Z,24.80
2022-11-23T19:55:04.255Z,25.63
2022-11-23T20:00:10.293Z,27.33
2022-11-23T20:05:14.904Z,24.60
2022-11-23T20:10:19.053Z,28.07
2022-11-23T20:15:25.084Z,29.40
2022-11-23T20:20:29.537Z,23.87
2022-11-23T20:25:39.234Z,26.50
2022-11-23T20:30:45.315Z,25.93
2022-11-23T20:35:51.558Z,23.57
2022-11-23T20:40:56.509Z,24.60
2022-11-23T20:46:01.222Z,22.73
2022-11-23T20:51:10.639Z,24.73
2022-11-23T20:56:15.164Z,23.43
2022-11-23T21:01:22.384Z,24.90
2022-11-23T21:06:34.444Z,18.97
2022-11-23T21:12:03.491Z,23.07
2022-11-23T21:17:08.107Z,19.40
2022-11-23T21:22:16.547Z,23.67
2022-11-23T21:27:24.244Z,22.77
2022-11-23T21:32:28.911Z,23.50
2022-11-23T21:37:32.853Z,23.20
2022-11-23T21:42:36.115Z,25.37
2022-11-23T21:47:39.616Z,25.27
2022-11-23T21:52:42.765Z,22.50
2022-11-23T21:57:46.577Z,23.50
2022-11-23T22:02:50.411Z,23.20
2022-11-23T22:08:27.763Z,24.47
2022-11-23T22:13:18.026Z,23.80
2022-11-23T22:18:22.453Z,22.47
2022-11-23T22:23:26.541Z,20.90
2022-11-23T22:28:35.384Z,21.90
2022-11-23T22:33:39.798Z,21.87
2022-11-23T22:38:43.817Z,15.87
2022-11-23T22:43:47.915Z,21.27
2022-11-23T22:48:52.699Z,20.53
2022-11-23T22:53:58.219Z,25.57
2022-11-23T22:59:02.070Z,23.27
2022-11-23T23:04:06.013Z,21.70
2022-11-23T23:09:10.645Z,23.47
2022-11-23T23:14:14.253Z,23.57
2022-11-23T23:19:17.849Z,19.73
2022-11-23T23:24:21.328Z,21.80
2022-11-23T23:29:24.660Z,21.73
2022-11-23T23:34:28.156Z,24.93
2022-11-23T23:39:31.913Z,22.50
2022-11-23T23:44:37.594Z,22.20
2022-11-23T23:49:41.075Z,21.10
2022-11-23T23:54:44.783Z,24.13
2022-11-23T23:59:48.274Z,21.17
